Time;durP1;ratioP1;P1;durP2;ratioP2;P2;SDS_P1;SDS_P2;PMS_P1;PMS_P2;Temp;Humidity;BMP_temperature;BMP_pressure;BME280_temperature;BME280_humidity;BME280_pressure;Samples;Min_cycle;Max_cycle;Signal;HPM_P1;HPM_P2
2024/01/06 00:02:22;;;;;;;19.25;9.00;;;;;;;;;;4935100;29;20026;-68
2024/01/06 00:04:48;;;;;;;21.40;8.30;;;;;;;;;;4937976;29;20380;-70
2024/01/06 00:07:14;;;;;;;20.45;9.25;;;;;;;;;;4938521;29;20032;-70
2024/01/06 00:09:40;;;;;;;18.48;8.52;;;;;;;;;;4938418;29;20384;-70
2024/01/06 00:12:06;;;;;;;18.73;8.45;;;;;;;;;;4938107;29;20083;-68
2024/01/06 00:14:31;;;;;;;18.23;8.55;;;;;;;;;;4937853;29;20095;-70
2024/01/06 00:16:57;;;;;;;20.45;9.05;;;;;;;;;;4921249;29;20040;-72
2024/01/06 00:19:22;;;;;;;22.02;9.30;;;;;;;;;;4938376;29;20024;-69
2024/01/06 00:21:48;;;;;;;23.38;8.25;;;;;;;;;;4938189;29;20032;-68
2024/01/06 00:24:13;;;;;;;22.98;8.80;;;;;;;;;;4937870;29;20028;-68
2024/01/06 00:26:39;;;;;;;13.77;8.38;;;;;;;;;;4937530;29;20034;-68
2024/01/06 00:29:04;;;;;;;17.05;8.23;;;;;;;;;;4937964;29;20027;-70
2024/01/06 00:31:30;;;;;;;18.42;8.65;;;;;;;;;;4938321;29;20023;-69
2024/01/06 00:33:55;;;;;;;15.95;8.70;;;;;;;;;;4939709;29;20027;-72
2024/01/06 00:36:21;;;;;;;16.38;8.15;;;;;;;;;;4943867;28;20119;-69
2024/01/06 00:38:47;;;;;;;28.25;8.98;;;;;;;;;;4942741;28;20366;-70
2024/01/06 00:41:14;;;;;;;24.75;7.85;;;;;;;;;;4942788;28;20044;-69
2024/01/06 00:43:39;;;;;;;19.60;8.50;;;;;;;;;;4940934;29;20038;-69
2024/01/06 00:46:05;;;;;;;26.77;8.30;;;;;;;;;;4942603;29;20032;-72
2024/01/06 00:48:30;;;;;;;14.75;7.53;;;;;;;;;;4945206;29;20429;-68
2024/01/06 07:50:12;;;;;;;8.35;5.20;;;;;;;;;;5090058;23;20052;-70
2024/01/06 07:52:37;;;;;;;8.07;4.95;;;;;;;;;;4919498;29;20111;-71
2024/01/06 07:55:03;;;;;;;8.35;5.10;;;;;;;;;;4919780;29;20054;-68
2024/01/06 07:57:29;;;;;;;7.75;5.05;;;;;;;;;;4919300;29;20112;-70
2024/01/06 07:59:54;;;;;;;6.20;4.70;;;;;;;;;;4918332;29;20024;-70
2024/01/06 08:02:20;;;;;;;6.97;4.72;;;;;;;;;;4918034;29;20163;-71
2024/01/06 08:04:45;;;;;;;6.78;5.05;;;;;;;;;;4918347;29;20099;-71
2024/01/06 08:07:11;;;;;;;5.25;4.63;;;;;;;;;;4918267;29;20039;-71
2024/01/06 08:09:37;;;;;;;5.78;5.07;;;;;;;;;;4915732;29;20061;-70
2024/01/06 08:12:03;;;;;;;12.60;5.97;;;;;;;;;;4900643;29;20035;-68
2024/01/06 08:14:28;;;;;;;6.53;4.82;;;;;;;;;;4901172;29;20024;-71
2024/01/06 08:16:54;;;;;;;6.60;5.47;;;;;;;;;;4917904;29;20020;-70
2024/01/06 08:19:20;;;;;;;6.68;4.57;;;;;;;;;;4917916;29;20024;-71
2024/01/06 08:21:45;;;;;;;9.95;5.25;;;;;;;;;;4917514;29;20024;-71
2024/01/06 08:24:11;;;;;;;7.15;5.35;;;;;;;;;;4900717;29;20036;-70
2024/01/06 08:26:36;;;;;;;6.60;4.93;;;;;;;;;;4917907;29;20517;-70
2024/01/06 08:29:02;;;;;;;5.55;4.90;;;;;;;;;;4917367;29;20024;-71
2024/01/06 08:31:28;;;;;;;8.77;4.75;;;;;;;;;;4917314;29;20028;-70
2024/01/06 08:33:53;;;;;;;7.57;5.20;;;;;;;;;;4915712;29;20028;-70
2024/01/06 08:36:19;;;;;;;6.43;4.93;;;;;;;;;;4917706;29;20076;-69
2024/01/06 08:38:45;;;;;;;10.90;4.88;;;;;;;;;;4917560;29;20600;-70
2024/01/06 08:41:11;;;;;;;8.48;4.80;;;;;;;;;;4915738;29;20048;-71
2024/01/06 08:43:36;;;;;;;6.50;5.07;;;;;;;;;;4910310;29;20118;-70
2024/01/06 08:46:02;;;;;;;7.90;4.95;;;;;;;;;;4911584;29;20055;-71
2024/01/06 08:48:27;;;;;;;5.28;4.78;;;;;;;;;;4917796;29;20032;-70
2024/01/06 08:50:53;;;;;;;8.57;5.13;;;;;;;;;;4917198;29;20484;-70
2024/01/06 08:53:18;;;;;;;6.75;5.00;;;;;;;;;;4917309;29;20032;-68
2024/01/06 08:55:44;;;;;;;7.30;5.07;;;;;;;;;;4916414;29;20469;-67
2024/01/06 08:58:09;;;;;;;7.10;4.70;;;;;;;;;;4917027;29;20032;-68
2024/01/06 09:00:35;;;;;;;5.63;4.68;;;;;;;;;;4917479;29;20602;-67
2024/01/06 09:03:02;;;;;;;6.03;4.47;;;;;;;;;;4916903;29;20111;-67
2024/01/06 09:05:28;;;;;;;6.35;4.95;;;;;;;;;;4917177;29;20029;-71
2024/01/06 09:07:54;;;;;;;6.68;4.55;;;;;;;;;;4912824;29;20048;-72
2024/01/06 09:10:19;;;;;;;5.85;4.72;;;;;;;;;;4908313;29;20409;-67
2024/01/06 09:12:45;;;;;;;5.00;4.35;;;;;;;;;;4913827;29;20028;-67
2024/01/06 09:15:11;;;;;;;5.80;4.40;;;;;;;;;;4913622;29;20078;-67
2024/01/06 09:17:36;;;;;;;7.13;5.00;;;;;;;;;;4913630;29;20453;-68
2024/01/06 09:20:02;;;;;;;6.20;4.80;;;;;;;;;;4909690;29;20032;-68
2024/01/06 09:22:28;;;;;;;5.18;4.47;;;;;;;;;;4908412;29;20024;-68
2024/01/06 09:24:54;;;;;;;4.93;4.20;;;;;;;;;;4907632;29;20029;-69
2024/01/06 09:27:20;;;;;;;5.60;4.32;;;;;;;;;;4914716;29;20477;-68
2024/01/06 09:29:45;;;;;;;5.88;4.50;;;;;;;;;;4916836;29;20024;-68
2024/01/06 09:32:12;;;;;;;6.82;4.72;;;;;;;;;;4915830;29;20055;-68
2024/01/06 09:34:38;;;;;;;6.78;5.60;;;;;;;;;;4916752;29;20438;-68
2024/01/06 09:37:04;;;;;;;6.60;4.60;;;;;;;;;;4914369;29;20025;-69
2024/01/06 09:39:31;;;;;;;7.00;4.68;;;;;;;;;;4916225;29;20020;-68
2024/01/06 09:41:57;;;;;;;5.90;4.85;;;;;;;;;;4915111;29;20028;-66
2024/01/06 09:44:23;;;;;;;5.40;4.40;;;;;;;;;;4916269;29;20505;-67
2024/01/06 09:46:51;;;;;;;5.32;4.38;;;;;;;;;;4913715;29;20036;-67
2024/01/06 09:49:23;;;;;;;5.68;4.88;;;;;;;;;;4915612;29;20416;-66
2024/01/06 09:51:52;;;;;;;5.07;4.53;;;;;;;;;;4915847;29;20028;-66
2024/01/06 09:54:24;;;;;;;4.95;4.30;;;;;;;;;;4916036;29;20489;-67
2024/01/06 09:56:50;;;;;;;7.65;4.75;;;;;;;;;;4915605;29;20623;-67
2024/01/06 09:59:15;;;;;;;6.53;4.70;;;;;;;;;;4916188;29;20036;-67
2024/01/06 10:01:41;;;;;;;6.45;4.43;;;;;;;;;;4915018;29;20028;-68
2024/01/06 10:04:07;;;;;;;7.22;5.07;;;;;;;;;;4910688;29;20031;-68
2024/01/06 10:06:33;;;;;;;5.32;4.50;;;;;;;;;;4907433;29;20032;-68
2024/01/06 10:08:58;;;;;;;4.78;4.35;;;;;;;;;;4916333;29;20111;-67
2024/01/06 10:11:24;;;;;;;6.45;4.40;;;;;;;;;;4915819;29;20040;-68
2024/01/06 10:13:51;;;;;;;6.15;4.43;;;;;;;;;;4914920;29;20037;-68
2024/01/06 10:16:17;;;;;;;6.78;4.32;;;;;;;;;;4916038;29;20066;-67
2024/01/06 10:18:44;;;;;;;5.88;4.80;;;;;;;;;;4916078;29;20052;-68
2024/01/06 10:21:10;;;;;;;6.95;4.72;;;;;;;;;;4914250;29;20485;-68
2024/01/06 10:23:36;;;;;;;6.35;4.18;;;;;;;;;;4914975;29;20039;-67
2024/01/06 10:26:02;;;;;;;5.93;4.88;;;;;;;;;;4914643;29;20032;-68
2024/01/06 10:28:28;;;;;;;9.20;4.72;;;;;;;;;;4915817;29;20024;-68
2024/01/06 10:30:55;;;;;;;6.47;4.85;;;;;;;;;;4915715;29;20020;-68
2024/01/06 10:33:22;;;;;;;5.22;3.97;;;;;;;;;;4915639;29;20020;-67
2024/01/06 10:35:48;;;;;;;5.13;4.50;;;;;;;;;;4914680;29;20032;-68
2024/01/06 10:38:17;;;;;;;6.72;4.50;;;;;;;;;;4915653;29;20024;-70
2024/01/06 10:41:06;;;;;;;5.28;4.28;;;;;;;;;;4914134;29;20024;-68
2024/01/06 10:43:40;;;;;;;6.28;4.40;;;;;;;;;;4914238;29;20026;-68
2024/01/06 10:46:10;;;;;;;4.82;4.38;;;;;;;;;;4914757;29;20123;-68
2024/01/06 10:48:38;;;;;;;5.80;4.25;;;;;;;;;;4913586;29;20044;-69
2024/01/06 10:51:07;;;;;;;7.07;4.22;;;;;;;;;;4914718;29;20035;-67
2024/01/06 10:53:35;;;;;;;5.43;4.50;;;;;;;;;;4914533;29;20024;-68
2024/01/06 10:56:02;;;;;;;5.03;4.15;;;;;;;;;;4916252;29;20106;-68
2024/01/06 10:58:28;;;;;;;5.90;4.47;;;;;;;;;;4916012;29;20043;-67
2024/01/06 11:00:56;;;;;;;6.22;4.45;;;;;;;;;;4917952;29;20032;-68
2024/01/06 11:03:22;;;;;;;5.55;4.03;;;;;;;;;;4918259;29;20028;-68
2024/01/06 11:05:48;;;;;;;6.80;4.55;;;;;;;;;;4918498;29;20036;-68
2024/01/06 11:08:18;;;;;;;5.05;4.10;;;;;;;;;;4917849;29;20087;-68
2024/01/06 11:10:45;;;;;;;9.50;4.90;;;;;;;;;;4918899;29;20032;-69
2024/01/06 11:13:20;;;;;;;5.25;4.43;;;;;;;;;;4918295;29;20114;-68
2024/01/06 11:15:53;;;;;;;6.18;4.75;;;;;;;;;;4918425;29;20044;-67
2024/01/06 11:18:34;;;;;;;5.45;4.57;;;;;;;;;;4918030;29;20036;-68
2024/01/06 11:21:21;;;;;;;4.97;4.28;;;;;;;;;;4919002;29;20036;-68
2024/01/06 11:24:20;;;;;;;5.90;4.20;;;;;;;;;;4918412;29;20050;-68
2024/01/06 11:26:49;;;;;;;5.60;4.32;;;;;;;;;;4916806;29;20476;-68
2024/01/06 11:29:15;;;;;;;6.15;4.50;;;;;;;;;;4917327;29;20397;-76
2024/01/06 11:31:41;;;;;;;4.65;4.15;;;;;;;;;;4917054;29;20066;-69
2024/01/06 11:34:16;;;;;;;6.53;4.20;;;;;;;;;;4914483;29;20091;-69
2024/01/06 11:36:48;;;;;;;4.53;3.85;;;;;;;;;;4916298;29;20047;-69
2024/01/06 11:39:39;;;;;;;4.88;4.30;;;;;;;;;;4916187;29;20035;-69
2024/01/06 11:42:05;;;;;;;4.22;3.83;;;;;;;;;;4916242;29;20052;-69
2024/01/06 11:44:36;;;;;;;5.53;4.30;;;;;;;;;;4915948;29;20134;-69
2024/01/06 11:47:02;;;;;;;6.13;4.45;;;;;;;;;;4916040;29;20075;-69
2024/01/06 11:49:28;;;;;;;5.20;4.10;;;;;;;;;;4915854;29;20131;-68
2024/01/06 11:51:54;;;;;;;5.10;3.90;;;;;;;;;;4916314;29;20029;-68
2024/01/06 11:54:21;;;;;;;5.75;4.40;;;;;;;;;;4899697;29;20035;-68
2024/01/06 13:20:59;;;;;;;5.57;3.97;;;;;;;;;;5136695;23;20038;-74
2024/01/06 13:23:25;;;;;;;5.13;4.63;;;;;;;;;;4896200;29;20396;-73
2024/01/06 13:25:51;;;;;;;4.93;3.67;;;;;;;;;;4917400;29;20032;-73
2024/01/06 13:28:17;;;;;;;3.90;3.50;;;;;;;;;;4917593;29;20451;-73
2024/01/06 13:30:43;;;;;;;4.32;3.92;;;;;;;;;;4917545;29;20476;-73
2024/01/06 13:33:11;;;;;;;7.25;3.90;;;;;;;;;;4917826;29;20067;-72
2024/01/06 13:35:37;;;;;;;4.90;4.30;;;;;;;;;;4917512;29;20388;-72
2024/01/06 13:38:06;;;;;;;5.13;3.78;;;;;;;;;;4916934;29;20032;-72
2024/01/06 13:40:31;;;;;;;5.43;4.15;;;;;;;;;;4917286;29;20016;-72
2024/01/06 13:42:58;;;;;;;5.70;4.35;;;;;;;;;;4916997;29;20536;-73
2024/01/06 13:45:24;;;;;;;5.90;4.28;;;;;;;;;;4916765;29;20036;-73
2024/01/06 13:47:49;;;;;;;5.00;4.13;;;;;;;;;;4916885;29;20048;-72
2024/01/06 13:50:19;;;;;;;5.07;4.00;;;;;;;;;;4916757;29;20112;-71
2024/01/06 13:52:48;;;;;;;4.82;3.85;;;;;;;;;;4917000;29;20524;-73
2024/01/06 13:55:13;;;;;;;5.25;3.95;;;;;;;;;;4917139;29;20515;-71
2024/01/06 13:57:41;;;;;;;4.72;4.05;;;;;;;;;;4917120;29;20055;-72
2024/01/06 14:00:18;;;;;;;4.55;4.05;;;;;;;;;;4917079;29;20024;-72
2024/01/06 14:02:45;;;;;;;4.95;3.85;;;;;;;;;;4917035;29;20032;-71
2024/01/06 14:05:11;;;;;;;5.18;3.80;;;;;;;;;;4916875;29;20141;-73
2024/01/06 14:07:38;;;;;;;4.47;3.90;;;;;;;;;;4917020;29;20541;-72
2024/01/06 14:10:04;;;;;;;4.03;3.67;;;;;;;;;;4899875;29;20024;-71
2024/01/06 14:12:32;;;;;;;6.00;3.75;;;;;;;;;;4916847;29;20519;-70
2024/01/06 14:14:58;;;;;;;5.40;3.90;;;;;;;;;;4916882;29;20036;-73
2024/01/06 14:17:25;;;;;;;7.22;3.50;;;;;;;;;;4915583;29;20386;-72
2024/01/06 14:19:50;;;;;;;5.18;4.10;;;;;;;;;;4916853;29;20175;-71
2024/01/06 14:22:17;;;;;;;4.20;3.67;;;;;;;;;;4915624;29;20552;-73
2024/01/06 14:24:43;;;;;;;4.13;3.72;;;;;;;;;;4913748;29;20103;-70
2024/01/06 14:27:08;;;;;;;4.43;4.00;;;;;;;;;;4916124;29;20044;-72
2024/01/06 14:29:34;;;;;;;4.72;3.95;;;;;;;;;;4916471;29;20024;-73
2024/01/06 14:32:00;;;;;;;5.43;3.97;;;;;;;;;;4916521;29;20083;-72
2024/01/06 14:34:25;;;;;;;4.30;3.90;;;;;;;;;;4916726;29;20103;-73
2024/01/06 14:36:51;;;;;;;4.45;3.85;;;;;;;;;;4916607;29;20396;-73
2024/01/06 14:39:21;;;;;;;4.25;3.70;;;;;;;;;;4916434;29;20385;-70
2024/01/06 14:41:47;;;;;;;4.93;3.97;;;;;;;;;;4916438;29;20083;-73
2024/01/06 14:44:13;;;;;;;6.30;4.15;;;;;;;;;;4916409;29;20032;-70
2024/01/06 14:46:38;;;;;;;4.40;4.00;;;;;;;;;;4916362;29;20130;-70
2024/01/06 14:49:04;;;;;;;6.20;4.10;;;;;;;;;;4916303;29;20025;-70
2024/01/06 14:51:30;;;;;;;5.03;3.88;;;;;;;;;;4916345;29;20036;-73
2024/01/06 14:53:58;;;;;;;4.97;3.90;;;;;;;;;;4911722;29;20024;-73
2024/01/06 14:56:24;;;;;;;4.90;3.90;;;;;;;;;;4913100;29;20024;-72
2024/01/06 14:58:50;;;;;;;4.35;3.65;;;;;;;;;;4915239;29;20024;-73
2024/01/06 15:01:15;;;;;;;5.05;3.83;;;;;;;;;;4912691;29;20024;-72
2024/01/06 15:03:41;;;;;;;3.90;3.50;;;;;;;;;;4912068;29;20024;-72
2024/01/06 15:06:07;;;;;;;4.57;3.92;;;;;;;;;;4914683;29;20110;-73
2024/01/06 15:08:33;;;;;;;5.05;3.92;;;;;;;;;;4912790;29;20048;-72
2024/01/06 15:10:59;;;;;;;3.92;3.60;;;;;;;;;;4913711;29;20020;-74
2024/01/06 15:13:26;;;;;;;4.22;3.80;;;;;;;;;;4913981;29;20040;-71
2024/01/06 15:15:51;;;;;;;3.67;3.38;;;;;;;;;;4912158;29;20028;-73
2024/01/06 15:18:20;;;;;;;4.50;3.88;;;;;;;;;;4913806;29;20047;-71
2024/01/06 15:20:46;;;;;;;4.47;4.00;;;;;;;;;;4915824;29;20028;-70
2024/01/06 15:23:12;;;;;;;5.38;3.75;;;;;;;;;;4916015;29;20044;-70
2024/01/06 15:25:37;;;;;;;4.35;3.92;;;;;;;;;;4916161;29;20503;-71
2024/01/06 15:28:03;;;;;;;5.10;4.28;;;;;;;;;;4916138;29;20032;-72
2024/01/06 15:30:28;;;;;;;5.03;4.13;;;;;;;;;;4916323;29;20028;-71
2024/01/06 15:32:54;;;;;;;4.68;3.95;;;;;;;;;;4916556;29;20566;-70
2024/01/06 15:35:20;;;;;;;4.72;4.22;;;;;;;;;;4918439;29;20036;-71
2024/01/06 15:37:47;;;;;;;4.82;4.10;;;;;;;;;;4919730;29;20063;-71
2024/01/06 15:40:13;;;;;;;5.03;3.90;;;;;;;;;;4920031;29;20028;-71
2024/01/06 15:42:38;;;;;;;4.35;3.85;;;;;;;;;;4919746;29;20816;-71
2024/01/06 15:45:05;;;;;;;4.38;3.97;;;;;;;;;;4919638;29;20028;-70
2024/01/06 15:47:30;;;;;;;4.35;3.60;;;;;;;;;;4919550;29;20024;-71
2024/01/06 15:49:56;;;;;;;4.10;3.67;;;;;;;;;;4919517;29;20032;-71
2024/01/06 15:52:21;;;;;;;5.05;4.25;;;;;;;;;;4919767;29;20039;-70
2024/01/06 15:54:51;;;;;;;4.45;3.75;;;;;;;;;;4919655;29;20503;-70
2024/01/06 15:57:17;;;;;;;4.00;3.60;;;;;;;;;;4919632;29;20028;-70
2024/01/06 15:59:42;;;;;;;5.72;4.00;;;;;;;;;;4919359;29;20511;-71
2024/01/06 16:02:08;;;;;;;4.47;3.63;;;;;;;;;;4902447;29;20054;-70
2024/01/06 16:04:33;;;;;;;4.68;3.83;;;;;;;;;;4919568;29;20024;-70
2024/01/06 16:06:59;;;;;;;4.50;3.83;;;;;;;;;;4919215;29;20031;-70
2024/01/06 16:09:25;;;;;;;4.78;3.60;;;;;;;;;;4919309;29;20028;-69
2024/01/06 16:11:58;;;;;;;4.30;3.90;;;;;;;;;;4919177;29;20035;-70
2024/01/06 16:14:25;;;;;;;3.90;3.53;;;;;;;;;;4919242;29;20047;-70
2024/01/06 16:16:52;;;;;;;4.93;3.92;;;;;;;;;;4919080;29;20488;-70
2024/01/06 16:19:18;;;;;;;4.95;3.78;;;;;;;;;;4919268;29;20121;-70
2024/01/06 16:21:43;;;;;;;4.10;3.67;;;;;;;;;;4918892;29;20052;-70
2024/01/06 16:24:09;;;;;;;3.65;3.35;;;;;;;;;;4919152;29;20493;-71
2024/01/06 16:26:35;;;;;;;4.20;3.70;;;;;;;;;;4918795;29;20432;-70
2024/01/06 16:29:01;;;;;;;5.70;3.72;;;;;;;;;;4918750;29;20032;-69
2024/01/06 16:31:27;;;;;;;4.40;4.00;;;;;;;;;;4918753;29;20115;-70
2024/01/06 16:33:52;;;;;;;4.93;3.60;;;;;;;;;;4918743;29;20039;-70
2024/01/06 16:36:18;;;;;;;5.72;3.80;;;;;;;;;;4918419;29;20088;-70
2024/01/06 16:38:44;;;;;;;4.35;3.75;;;;;;;;;;4918930;29;20031;-70
2024/01/06 16:41:09;;;;;;;3.92;3.60;;;;;;;;;;4918881;29;20032;-71
2024/01/06 16:43:37;;;;;;;4.40;3.80;;;;;;;;;;4918537;29;20539;-70
2024/01/06 16:46:05;;;;;;;4.15;3.45;;;;;;;;;;4918445;29;20032;-70
2024/01/06 16:48:31;;;;;;;4.65;3.78;;;;;;;;;;4918405;29;20036;-70
2024/01/06 16:50:59;;;;;;;4.18;3.78;;;;;;;;;;4916815;29;20156;-70
2024/01/06 16:53:25;;;;;;;4.97;3.95;;;;;;;;;;4917330;29;20024;-70
2024/01/06 16:55:51;;;;;;;3.92;3.53;;;;;;;;;;4917209;29;20024;-74
2024/01/06 16:58:16;;;;;;;3.85;3.50;;;;;;;;;;4917139;29;20035;-73
2024/01/06 17:00:42;;;;;;;5.70;3.95;;;;;;;;;;4917073;29;20032;-72
2024/01/06 17:03:10;;;;;;;3.80;3.50;;;;;;;;;;4913497;29;20043;-73
2024/01/06 17:05:36;;;;;;;4.07;3.55;;;;;;;;;;4917111;29;20028;-73
2024/01/06 17:08:03;;;;;;;6.03;4.50;;;;;;;;;;4915857;29;20031;-74
2024/01/06 17:10:29;;;;;;;5.93;4.47;;;;;;;;;;4916020;29;20388;-72
2024/01/06 17:12:54;;;;;;;7.13;4.55;;;;;;;;;;4912645;29;20031;-72
2024/01/06 17:15:24;;;;;;;6.15;4.47;;;;;;;;;;4899391;29;20462;-70
2024/01/06 17:17:50;;;;;;;5.57;4.30;;;;;;;;;;4916191;29;20031;-70
2024/01/06 17:20:16;;;;;;;4.63;4.10;;;;;;;;;;4913234;29;20362;-70
2024/01/06 17:22:44;;;;;;;5.57;3.95;;;;;;;;;;4916626;29;20036;-70
2024/01/06 17:25:12;;;;;;;5.47;4.43;;;;;;;;;;4913106;29;20138;-70
2024/01/06 17:27:39;;;;;;;6.00;4.07;;;;;;;;;;4914324;29;20040;-71
2024/01/06 17:30:06;;;;;;;6.35;4.40;;;;;;;;;;4915299;29;20032;-70
2024/01/06 17:32:33;;;;;;;5.55;4.28;;;;;;;;;;4915798;29;20028;-70
2024/01/06 17:34:59;;;;;;;7.65;4.63;;;;;;;;;;4917554;29;20084;-70
2024/01/06 17:37:24;;;;;;;6.38;4.43;;;;;;;;;;4917859;29;20028;-70
2024/01/06 17:39:50;;;;;;;5.15;3.53;;;;;;;;;;4917717;29;20420;-69
2024/01/06 17:42:16;;;;;;;4.20;3.80;;;;;;;;;;4917452;29;20417;-69
2024/01/06 17:44:44;;;;;;;4.78;4.05;;;;;;;;;;4917464;29;20024;-69
2024/01/06 17:47:11;;;;;;;4.25;3.70;;;;;;;;;;4917234;29;20115;-69
2024/01/06 17:49:37;;;;;;;4.55;3.88;;;;;;;;;;4917614;29;20362;-70
2024/01/06 17:52:03;;;;;;;5.38;4.15;;;;;;;;;;4917519;29;20039;-70
2024/01/06 17:54:28;;;;;;;5.07;3.97;;;;;;;;;;4917200;29;20374;-69
2024/01/06 17:56:54;;;;;;;7.32;4.10;;;;;;;;;;4916586;29;20093;-70
2024/01/06 17:59:19;;;;;;;4.72;4.20;;;;;;;;;;4917126;29;20032;-70
2024/01/06 18:01:45;;;;;;;5.38;4.00;;;;;;;;;;4917373;29;20028;-71
2024/01/06 18:04:11;;;;;;;4.82;3.70;;;;;;;;;;4917140;29;20031;-70
2024/01/06 18:06:38;;;;;;;5.15;3.85;;;;;;;;;;4917171;29;20107;-70
2024/01/06 18:09:05;;;;;;;5.50;3.85;;;;;;;;;;4917291;29;20032;-70
2024/01/06 18:11:30;;;;;;;5.93;4.28;;;;;;;;;;4916929;29;20089;-70
2024/01/06 18:13:56;;;;;;;4.97;3.53;;;;;;;;;;4916950;29;20032;-70
2024/01/06 18:16:22;;;;;;;6.10;3.80;;;;;;;;;;4916801;29;20442;-70
2024/01/06 18:18:48;;;;;;;4.20;3.63;;;;;;;;;;4916844;29;20032;-70
2024/01/06 18:21:14;;;;;;;4.75;4.00;;;;;;;;;;4916661;29;20064;-70
2024/01/06 18:23:40;;;;;;;5.13;3.88;;;;;;;;;;4916841;29;20400;-70
2024/01/06 18:26:05;;;;;;;5.45;3.90;;;;;;;;;;4916579;29;20032;-70
2024/01/06 18:28:32;;;;;;;4.22;3.65;;;;;;;;;;4916626;29;20024;-70
2024/01/06 18:30:58;;;;;;;4.93;3.63;;;;;;;;;;4916474;29;20035;-70
2024/01/06 18:33:24;;;;;;;5.30;3.75;;;;;;;;;;4916479;29;20024;-69
2024/01/06 18:35:49;;;;;;;4.53;3.65;;;;;;;;;;4916607;29;20068;-70
2024/01/06 18:38:15;;;;;;;5.20;3.80;;;;;;;;;;4916531;29;20059;-69
2024/01/06 18:40:40;;;;;;;4.03;3.63;;;;;;;;;;4916432;29;20062;-69
2024/01/06 18:43:06;;;;;;;5.18;4.00;;;;;;;;;;4916339;29;20424;-70
2024/01/06 18:45:31;;;;;;;4.65;3.92;;;;;;;;;;4916192;29;20036;-70
2024/01/06 18:47:57;;;;;;;5.03;4.07;;;;;;;;;;4916392;29;20039;-70
2024/01/06 18:50:23;;;;;;;5.50;3.85;;;;;;;;;;4916554;29;20028;-70
2024/01/06 18:52:49;;;;;;;4.07;3.47;;;;;;;;;;4916421;29;20031;-70
2024/01/06 18:55:15;;;;;;;5.60;3.78;;;;;;;;;;4916462;29;20369;-69
2024/01/06 18:57:41;;;;;;;5.10;4.00;;;;;;;;;;4916309;29;20020;-69
2024/01/06 19:00:08;;;;;;;4.68;3.97;;;;;;;;;;4916245;29;20032;-70
2024/01/06 19:02:34;;;;;;;4.82;3.88;;;;;;;;;;4916233;29;20032;-69
2024/01/06 19:05:00;;;;;;;4.53;3.83;;;;;;;;;;4916075;29;20029;-69
2024/01/06 19:07:27;;;;;;;4.22;3.67;;;;;;;;;;4916186;29;20112;-69
2024/01/06 19:09:53;;;;;;;5.03;3.88;;;;;;;;;;4902773;29;20389;-71
2024/01/06 19:12:18;;;;;;;4.53;3.63;;;;;;;;;;4920071;29;20028;-69
2024/01/06 19:14:45;;;;;;;4.35;3.75;;;;;;;;;;4920178;29;20038;-69
2024/01/06 19:17:12;;;;;;;4.50;3.67;;;;;;;;;;4920278;29;20388;-70
2024/01/06 19:19:39;;;;;;;4.65;3.80;;;;;;;;;;4920099;29;20084;-70
2024/01/06 19:22:06;;;;;;;4.53;3.80;;;;;;;;;;4909928;29;20577;-70
2024/01/06 19:24:31;;;;;;;7.63;3.75;;;;;;;;;;4920006;29;20032;-69
2024/01/06 19:26:57;;;;;;;5.15;4.10;;;;;;;;;;4920210;29;20353;-69
2024/01/06 19:29:23;;;;;;;3.95;3.55;;;;;;;;;;4919993;29;20039;-70
2024/01/06 19:31:49;;;;;;;5.10;3.88;;;;;;;;;;4920075;29;20369;-69
2024/01/06 19:34:14;;;;;;;5.40;4.10;;;;;;;;;;4919821;29;20024;-70
2024/01/06 19:36:40;;;;;;;6.65;3.42;;;;;;;;;;4918368;29;20031;-69
2024/01/06 19:39:05;;;;;;;4.35;3.72;;;;;;;;;;4915985;29;20028;-70
2024/01/06 19:41:31;;;;;;;4.40;3.55;;;;;;;;;;4917328;29;20024;-70
2024/01/06 19:44:01;;;;;;;3.97;3.35;;;;;;;;;;4916186;29;20385;-69
2024/01/06 19:46:27;;;;;;;3.63;3.10;;;;;;;;;;4917503;29;20035;-69
2024/01/06 19:48:52;;;;;;;4.60;4.10;;;;;;;;;;4918406;29;20025;-69
2024/01/06 19:51:18;;;;;;;4.75;3.80;;;;;;;;;;4918498;29;20151;-69
2024/01/06 19:53:45;;;;;;;4.43;3.60;;;;;;;;;;4918445;29;20029;-70
2024/01/06 19:56:14;;;;;;;5.20;3.70;;;;;;;;;;4916989;29;20028;-69
2024/01/06 19:58:43;;;;;;;4.50;3.63;;;;;;;;;;4917100;29;20032;-69
2024/01/06 20:01:09;;;;;;;3.95;3.47;;;;;;;;;;4914742;29;20035;-69
2024/01/06 20:03:36;;;;;;;4.78;3.92;;;;;;;;;;4916896;29;20016;-70
2024/01/06 20:06:04;;;;;;;6.05;4.00;;;;;;;;;;4916949;29;20372;-70
2024/01/06 20:08:30;;;;;;;5.93;3.60;;;;;;;;;;4916904;29;20024;-70
2024/01/06 20:11:02;;;;;;;4.10;3.67;;;;;;;;;;4918005;29;20378;-70
2024/01/06 20:13:28;;;;;;;5.88;3.63;;;;;;;;;;4916144;29;20028;-70
2024/01/06 20:15:54;;;;;;;4.70;3.78;;;;;;;;;;4899544;29;20028;-70
2024/01/06 20:18:21;;;;;;;5.28;3.90;;;;;;;;;;4918001;29;20024;-70
2024/01/06 20:20:47;;;;;;;4.40;3.63;;;;;;;;;;4913638;29;20103;-70
2024/01/06 20:23:13;;;;;;;4.43;3.40;;;;;;;;;;4916387;29;20123;-70
2024/01/06 20:25:42;;;;;;;4.15;3.50;;;;;;;;;;4915351;29;20393;-69
2024/01/06 20:28:08;;;;;;;5.55;4.10;;;;;;;;;;4915408;29;20032;-69
2024/01/06 20:30:35;;;;;;;4.03;3.50;;;;;;;;;;4900687;29;20028;-70
2024/01/06 20:33:01;;;;;;;4.15;3.70;;;;;;;;;;4918013;29;20063;-69
2024/01/06 20:35:26;;;;;;;3.80;3.45;;;;;;;;;;4915042;29;20078;-70
2024/01/06 20:37:54;;;;;;;4.50;3.60;;;;;;;;;;4916610;29;20024;-70
2024/01/06 20:40:20;;;;;;;4.00;3.60;;;;;;;;;;4918676;29;20036;-70
2024/01/06 20:42:49;;;;;;;4.40;3.60;;;;;;;;;;4913755;29;20028;-70
2024/01/06 20:45:17;;;;;;;4.45;3.42;;;;;;;;;;4916114;29;20429;-70
2024/01/06 20:47:43;;;;;;;4.47;3.30;;;;;;;;;;4914861;29;20511;-69
2024/01/06 20:50:09;;;;;;;4.72;3.70;;;;;;;;;;4916385;29;20040;-70
2024/01/06 20:52:38;;;;;;;4.00;3.55;;;;;;;;;;4915149;29;20043;-69
2024/01/06 20:55:04;;;;;;;3.90;3.50;;;;;;;;;;4917349;29;20039;-69
2024/01/06 20:57:30;;;;;;;4.47;3.72;;;;;;;;;;4913268;29;20048;-69
2024/01/06 20:59:56;;;;;;;4.18;3.50;;;;;;;;;;4899792;29;20028;-69
2024/01/06 21:02:22;;;;;;;4.22;3.60;;;;;;;;;;4899387;29;20032;-71
2024/01/06 21:04:48;;;;;;;3.67;3.38;;;;;;;;;;4899431;29;20068;-69
2024/01/06 21:07:13;;;;;;;4.53;3.38;;;;;;;;;;4899276;29;20068;-69
2024/01/06 21:09:39;;;;;;;4.18;3.78;;;;;;;;;;4899380;29;20513;-69
2024/01/06 21:12:05;;;;;;;5.25;3.60;;;;;;;;;;4899307;29;20032;-70
2024/01/06 21:14:31;;;;;;;3.90;3.45;;;;;;;;;;4899167;29;20452;-69
2024/01/06 21:16:56;;;;;;;5.47;3.22;;;;;;;;;;4899194;29;20043;-70
2024/01/06 21:19:23;;;;;;;4.30;3.35;;;;;;;;;;4899169;29;20033;-70
2024/01/06 21:21:49;;;;;;;3.65;3.35;;;;;;;;;;4898923;29;20052;-70
2024/01/06 21:24:15;;;;;;;7.85;3.55;;;;;;;;;;4899055;29;20078;-69
2024/01/06 21:26:41;;;;;;;4.50;3.47;;;;;;;;;;4898949;29;20033;-69
2024/01/06 21:29:06;;;;;;;6.22;3.97;;;;;;;;;;4899041;29;20429;-69
2024/01/06 21:31:32;;;;;;;3.58;3.15;;;;;;;;;;4898108;29;20481;-69
2024/01/06 21:33:58;;;;;;;3.67;3.28;;;;;;;;;;4920231;29;20036;-68
2024/01/06 21:36:24;;;;;;;4.30;3.70;;;;;;;;;;4917814;29;20039;-68
2024/01/06 21:38:49;;;;;;;4.75;3.58;;;;;;;;;;4901000;29;20095;-69
2024/01/06 21:41:16;;;;;;;3.67;3.28;;;;;;;;;;4898692;29;20029;-69
2024/01/06 21:43:41;;;;;;;3.75;3.42;;;;;;;;;;4898665;29;20037;-69
2024/01/06 21:46:07;;;;;;;5.15;3.35;;;;;;;;;;4899413;29;20052;-69
2024/01/06 21:48:32;;;;;;;6.35;3.47;;;;;;;;;;4906216;29;20084;-69
2024/01/06 21:50:58;;;;;;;4.78;3.80;;;;;;;;;;4898555;29;20028;-68
2024/01/06 21:53:24;;;;;;;3.88;3.47;;;;;;;;;;4904515;29;20076;-68
2024/01/06 21:55:49;;;;;;;4.40;3.65;;;;;;;;;;4914135;29;20046;-69
2024/01/06 21:58:15;;;;;;;4.65;3.60;;;;;;;;;;4912459;29;20563;-69
2024/01/06 22:00:41;;;;;;;4.22;3.45;;;;;;;;;;4916625;29;20429;-69
2024/01/06 22:03:08;;;;;;;4.20;3.60;;;;;;;;;;4917126;29;20027;-68
2024/01/06 22:05:33;;;;;;;5.18;3.67;;;;;;;;;;4917270;29;20039;-68
2024/01/06 22:07:59;;;;;;;5.15;3.47;;;;;;;;;;4917065;29;20370;-69
2024/01/06 22:10:32;;;;;;;4.85;3.70;;;;;;;;;;4917237;29;20477;-68
2024/01/06 22:12:59;;;;;;;3.47;3.17;;;;;;;;;;4917051;29;20481;-69
2024/01/06 22:15:24;;;;;;;3.75;3.35;;;;;;;;;;4916934;29;20032;-69
2024/01/06 22:17:50;;;;;;;4.38;3.60;;;;;;;;;;4916959;29;20043;-69
2024/01/06 22:20:15;;;;;;;4.03;3.30;;;;;;;;;;4916819;29;20028;-70
2024/01/06 22:22:42;;;;;;;4.38;3.25;;;;;;;;;;4916692;29;20048;-69
2024/01/06 22:25:08;;;;;;;5.68;3.55;;;;;;;;;;4916968;29;20032;-69
2024/01/06 22:27:33;;;;;;;4.20;3.60;;;;;;;;;;4916753;29;20032;-68
2024/01/06 22:29:59;;;;;;;4.00;3.53;;;;;;;;;;4916705;29;20087;-69
2024/01/06 22:32:26;;;;;;;3.90;3.50;;;;;;;;;;4916913;29;20381;-67
2024/01/06 22:34:52;;;;;;;4.38;3.28;;;;;;;;;;4916918;29;20130;-68
2024/01/06 22:37:17;;;;;;;4.07;3.17;;;;;;;;;;4916857;29;20134;-68
2024/01/06 22:39:43;;;;;;;4.35;3.40;;;;;;;;;;4916494;29;20115;-69
2024/01/06 22:42:08;;;;;;;3.72;3.30;;;;;;;;;;4899540;29;20032;-68
2024/01/06 22:44:34;;;;;;;4.20;3.50;;;;;;;;;;4916338;29;20028;-69
2024/01/06 22:47:00;;;;;;;3.58;3.17;;;;;;;;;;4913462;29;20179;-68
2024/01/06 22:49:25;;;;;;;3.67;3.38;;;;;;;;;;4909711;29;20032;-69
2024/01/06 22:51:51;;;;;;;4.85;3.50;;;;;;;;;;4912698;29;20016;-69
2024/01/06 22:54:16;;;;;;;3.97;3.38;;;;;;;;;;4916229;29;20024;-70
2024/01/06 22:56:43;;;;;;;5.25;3.33;;;;;;;;;;4916380;29;20492;-70
2024/01/06 22:59:08;;;;;;;4.55;3.65;;;;;;;;;;4916219;29;20036;-68
2024/01/06 23:01:34;;;;;;;4.07;3.20;;;;;;;;;;4916283;29;20076;-69
2024/01/06 23:04:00;;;;;;;4.00;3.47;;;;;;;;;;4916367;29;20473;-69